sensor_id;sensor_type;location;lat;lon;timestamp;pressure;altitude;pressure_sealevel;temperature;humidity
67052;BME280;53957;47.222;18.670;2023-02-28T00:00:39;101296.66;;;-1.14;100.00
67052;BME280;53957;47.222;18.670;2023-02-28T00:03:43;101299.28;;;-1.14;100.00
67052;BME280;53957;47.222;18.670;2023-02-28T00:06:45;101303.56;;;-0.83;99.39
67052;BME280;53957;47.222;18.670;2023-02-28T00:09:49;101302.81;;;-1.07;100.00
67052;BME280;53957;47.222;18.670;2023-02-28T00:12:53;101312.75;;;-1.02;100.00
67052;BME280;53957;47.222;18.670;2023-02-28T00:16:01;101311.66;;;-0.93;100.00
67052;BME280;53957;47.222;18.670;2023-02-28T00:19:04;101315.53;;;-1.04;100.00
67052;BME280;53957;47.222;18.670;2023-02-28T00:22:07;101323.97;;;-0.93;100.00
67052;BME280;53957;47.222;18.670;2023-02-28T00:25:13;101320.69;;;-0.95;100.00
67052;BME280;53957;47.222;18.670;2023-02-28T00:28:16;101330.41;;;-0.81;99.61
67052;BME280;53957;47.222;18.670;2023-02-28T00:31:19;101337.25;;;-0.80;100.00
67052;BME280;53957;47.222;18.670;2023-02-28T00:34:23;101331.84;;;-0.78;100.00
67052;BME280;53957;47.222;18.670;2023-02-28T00:37:28;101336.62;;;-0.82;100.00
67052;BME280;53957;47.222;18.670;2023-02-28T00:40:31;101337.72;;;-0.91;100.00
67052;BME280;53957;47.222;18.670;2023-02-28T00:43:36;101333.31;;;-1.14;100.00
67052;BME280;53957;47.222;18.670;2023-02-28T00:46:39;101331.09;;;-1.02;100.00
67052;BME280;53957;47.222;18.670;2023-02-28T00:49:42;101332.88;;;-1.03;100.00
67052;BME280;53957;47.222;18.670;2023-02-28T00:52:46;101326.59;;;-0.93;100.00
67052;BME280;53957;47.222;18.670;2023-02-28T00:55:50;101325.66;;;-1.01;100.00
67052;BME280;53957;47.222;18.670;2023-02-28T00:58:53;101331.13;;;-0.72;100.00
67052;BME280;53957;47.222;18.670;2023-02-28T01:01:56;101332.16;;;-0.97;100.00
67052;BME280;53957;47.222;18.670;2023-02-28T01:04:59;101338.13;;;-0.88;100.00
67052;BME280;53957;47.222;18.670;2023-02-28T01:08:04;101339.25;;;-0.82;100.00
67052;BME280;53957;47.222;18.670;2023-02-28T01:11:10;101334.66;;;-0.80;100.00
67052;BME280;53957;47.222;18.670;2023-02-28T01:14:16;101327.03;;;-0.90;100.00
67052;BME280;53957;47.222;18.670;2023-02-28T01:17:20;101332.25;;;-1.05;100.00
67052;BME280;53957;47.222;18.670;2023-02-28T01:20:23;101329.25;;;-1.17;100.00
67052;BME280;53957;47.222;18.670;2023-02-28T01:23:27;101334.44;;;-0.93;100.00
67052;BME280;53957;47.222;18.670;2023-02-28T01:26:30;101331.56;;;-0.99;100.00
67052;BME280;53957;47.222;18.670;2023-02-28T01:29:33;101329.25;;;-1.17;100.00
67052;BME280;53957;47.222;18.670;2023-02-28T01:32:36;101329.47;;;-1.03;100.00
67052;BME280;53957;47.222;18.670;2023-02-28T01:35:39;101332.16;;;-0.97;100.00
67052;BME280;53957;47.222;18.670;2023-02-28T01:38:44;101329.28;;;-1.02;100.00
67052;BME280;53957;47.222;18.670;2023-02-28T04:02:23;101321.28;;;-0.85;100.00
67052;BME280;53957;47.222;18.670;2023-02-28T04:05:30;101328.13;;;-0.84;100.00
67052;BME280;53957;47.222;18.670;2023-02-28T04:08:34;101329.75;;;-0.83;100.00
67052;BME280;53957;47.222;18.670;2023-02-28T04:11:42;101328.22;;;-0.77;100.00
67052;BME280;53957;47.222;18.670;2023-02-28T04:14:46;101327.66;;;-0.88;100.00
67052;BME280;53957;47.222;18.670;2023-02-28T04:17:49;101332.63;;;-0.93;100.00
67052;BME280;53957;47.222;18.670;2023-02-28T04:20:52;101334.28;;;-0.47;94.52
67052;BME280;53957;47.222;18.670;2023-02-28T04:23:55;101328.56;;;-0.81;100.00
67052;BME280;53957;47.222;18.670;2023-02-28T04:27:03;101320.00;;;-0.89;100.00
67052;BME280;53957;47.222;18.670;2023-02-28T04:30:06;101324.97;;;-0.79;100.00
67052;BME280;53957;47.222;18.670;2023-02-28T04:33:10;101321.63;;;-0.73;100.00
67052;BME280;53957;47.222;18.670;2023-02-28T04:36:14;101324.50;;;-0.83;100.00
67052;BME280;53957;47.222;18.670;2023-02-28T04:39:23;101323.34;;;-0.81;100.00
67052;BME280;53957;47.222;18.670;2023-02-28T04:42:27;101328.03;;;-0.76;100.00
67052;BME280;53957;47.222;18.670;2023-02-28T04:45:30;101331.56;;;-0.69;100.00
67052;BME280;53957;47.222;18.670;2023-02-28T04:48:36;101337.53;;;-0.75;100.00
67052;BME280;53957;47.222;18.670;2023-02-28T04:51:40;101332.22;;;-0.67;100.00
67052;BME280;53957;47.222;18.670;2023-02-28T04:54:43;101340.09;;;-0.67;100.00
67052;BME280;53957;47.222;18.670;2023-02-28T04:57:46;101328.69;;;-0.74;100.00
67052;BME280;53957;47.222;18.670;2023-02-28T05:00:52;101332.03;;;-0.65;100.00
67052;BME280;53957;47.222;18.670;2023-02-28T05:03:57;101331.91;;;-0.72;100.00
67052;BME280;53957;47.222;18.670;2023-02-28T05:07:01;101338.13;;;-0.88;100.00
67052;BME280;53957;47.222;18.670;2023-02-28T05:10:04;101331.75;;;-0.85;100.00
67052;BME280;53957;47.222;18.670;2023-02-28T05:13:11;101324.94;;;-0.94;100.00
67052;BME280;53957;47.222;18.670;2023-02-28T05:16:15;101331.09;;;-0.87;100.00
67052;BME280;53957;47.222;18.670;2023-02-28T05:19:18;101328.13;;;-0.84;100.00
67052;BME280;53957;47.222;18.670;2023-02-28T05:22:21;101323.59;;;-0.90;100.00
67052;BME280;53957;47.222;18.670;2023-02-28T05:25:25;101320.56;;;-0.79;100.00
67052;BME280;53957;47.222;18.670;2023-02-28T05:28:28;101328.22;;;-0.77;100.00
67052;BME280;53957;47.222;18.670;2023-02-28T05:31:31;101332.28;;;-0.75;100.00
67052;BME280;53957;47.222;18.670;2023-02-28T05:34:36;101332.81;;;-0.94;100.00
67052;BME280;53957;47.222;18.670;2023-02-28T05:37:39;101332.16;;;-0.97;100.00
67052;BME280;53957;47.222;18.670;2023-02-28T05:40:42;101342.37;;;-1.02;100.00
67052;BME280;53957;47.222;18.670;2023-02-28T05:44:05;101340.12;;;-1.05;100.00
67052;BME280;53957;47.222;18.670;2023-02-28T05:47:08;101350.88;;;-1.00;100.00
67052;BME280;53957;47.222;18.670;2023-02-28T05:50:12;101360.03;;;-1.04;100.00
67052;BME280;53957;47.222;18.670;2023-02-28T05:53:15;101359.16;;;-1.11;100.00
67052;BME280;53957;47.222;18.670;2023-02-28T05:56:18;101355.19;;;-1.07;100.00
67052;BME280;53957;47.222;18.670;2023-02-28T05:59:21;101352.66;;;-1.00;100.00
67052;BME280;53957;47.222;18.670;2023-02-28T06:02:24;101356.13;;;-0.85;100.00
67052;BME280;53957;47.222;18.670;2023-02-28T06:05:28;101359.22;;;-0.81;100.00
67052;BME280;53957;47.222;18.670;2023-02-28T06:08:31;101362.81;;;-0.82;100.00
67052;BME280;53957;47.222;18.670;2023-02-28T06:11:34;101359.84;;;-0.79;100.00
67052;BME280;53957;47.222;18.670;2023-02-28T06:14:37;101365.63;;;-0.69;100.00
67052;BME280;53957;47.222;18.670;2023-02-28T06:17:41;101368.91;;;-0.67;100.00
67052;BME280;53957;47.222;18.670;2023-02-28T06:20:44;101367.91;;;-0.51;100.00
67052;BME280;53957;47.222;18.670;2023-02-28T06:23:48;101365.34;;;-0.14;100.00
67052;BME280;53957;47.222;18.670;2023-02-28T06:26:50;101366.19;;;-0.13;100.00
67052;BME280;53957;47.222;18.670;2023-02-28T06:29:54;101371.56;;;0.37;100.00
67052;BME280;53957;47.222;18.670;2023-02-28T06:33:00;101375.50;;;1.12;96.51
67052;BME280;53957;47.222;18.670;2023-02-28T06:36:04;101377.97;;;1.91;89.91
67052;BME280;53957;47.222;18.670;2023-02-28T06:39:08;101377.41;;;2.02;86.79
67052;BME280;53957;47.222;18.670;2023-02-28T06:42:12;101386.69;;;2.67;83.73
67052;BME280;53957;47.222;18.670;2023-02-28T06:45:15;101390.69;;;2.36;82.04
67052;BME280;53957;47.222;18.670;2023-02-28T06:48:18;101389.94;;;3.29;80.48
67052;BME280;53957;47.222;18.670;2023-02-28T06:51:21;101388.31;;;3.21;79.13
67052;BME280;53957;47.222;18.670;2023-02-28T06:54:25;101390.25;;;3.73;76.05
67052;BME280;53957;47.222;18.670;2023-02-28T06:57:29;101396.78;;;3.50;74.51
67052;BME280;53957;47.222;18.670;2023-02-28T07:00:33;101394.72;;;4.63;71.88
67052;BME280;53957;47.222;18.670;2023-02-28T16:37:12;101256.03;;;3.83;83.91
67052;BME280;53957;47.222;18.670;2023-02-28T16:40:20;101251.00;;;3.75;83.44
67052;BME280;53957;47.222;18.670;2023-02-28T16:43:25;101253.06;;;3.73;82.60
67052;BME280;53957;47.222;18.670;2023-02-28T16:46:35;101255.09;;;3.71;83.31
67052;BME280;53957;47.222;18.670;2023-02-28T16:49:43;101259.56;;;3.70;82.90
67052;BME280;53957;47.222;18.670;2023-02-28T16:52:47;101254.03;;;3.79;83.82
67052;BME280;53957;47.222;18.670;2023-02-28T16:56:16;101256.16;;;3.57;83.68
67052;BME280;53957;47.222;18.670;2023-02-28T16:59:24;101258.78;;;3.57;85.37
67052;BME280;53957;47.222;18.670;2023-02-28T17:02:29;101265.34;;;3.86;83.47
67052;BME280;53957;47.222;18.670;2023-02-28T17:05:42;101260.22;;;3.98;83.25
67052;BME280;53957;47.222;18.670;2023-02-28T17:08:49;101264.91;;;3.96;83.34
67052;BME280;53957;47.222;18.670;2023-02-28T17:12:19;101268.38;;;3.90;84.66
67052;BME280;53957;47.222;18.670;2023-02-28T17:15:31;101267.31;;;3.59;87.04
67052;BME280;53957;47.222;18.670;2023-02-28T17:19:01;101272.09;;;3.75;87.56
67052;BME280;53957;47.222;18.670;2023-02-28T17:22:04;101270.56;;;3.61;87.50
67052;BME280;53957;47.222;18.670;2023-02-28T17:25:47;101269.28;;;3.70;87.65
67052;BME280;53957;47.222;18.670;2023-02-28T17:29:20;101286.97;;;3.69;88.39
67052;BME280;53957;47.222;18.670;2023-02-28T17:32:24;101280.22;;;3.80;87.36
67052;BME280;53957;47.222;18.670;2023-02-28T17:35:29;101285.22;;;3.50;87.75
67052;BME280;53957;47.222;18.670;2023-02-28T17:38:33;101290.53;;;3.36;88.72
67052;BME280;53957;47.222;18.670;2023-02-28T17:41:45;101297.44;;;3.31;89.06
67052;BME280;53957;47.222;18.670;2023-02-28T17:45:28;101292.72;;;3.46;89.14
67052;BME280;53957;47.222;18.670;2023-02-28T17:48:36;101287.03;;;3.49;88.18
67052;BME280;53957;47.222;18.670;2023-02-28T17:51:56;101288.09;;;3.28;89.65
67052;BME280;53957;47.222;18.670;2023-02-28T17:55:20;101288.06;;;3.48;88.48
67052;BME280;53957;47.222;18.670;2023-02-28T17:58:25;101280.78;;;3.37;89.12
67052;BME280;53957;47.222;18.670;2023-02-28T18:01:28;101282.03;;;3.28;90.05
67052;BME280;53957;47.222;18.670;2023-02-28T18:04:42;101284.84;;;3.33;90.42
67052;BME280;53957;47.222;18.670;2023-02-28T18:07:49;101280.78;;;3.37;90.31
67052;BME280;53957;47.222;18.670;2023-02-28T18:11:33;101290.94;;;3.40;90.74
67052;BME280;53957;47.222;18.670;2023-02-28T18:14:46;101282.25;;;3.19;92.37
67052;BME280;53957;47.222;18.670;2023-02-28T18:17:50;101279.53;;;3.46;90.41
67052;BME280;53957;47.222;18.670;2023-02-28T18:20:54;101282.97;;;3.53;90.81
67052;BME280;53957;47.222;18.670;2023-02-28T18:24:18;101285.31;;;3.16;92.24
67052;BME280;53957;47.222;18.670;2023-02-28T18:27:21;101294.78;;;3.31;91.36
67052;BME280;53957;47.222;18.670;2023-02-28T18:30:27;101289.38;;;3.12;91.91
67052;BME280;53957;47.222;18.670;2023-02-28T18:33:33;101298.91;;;3.20;92.23
67052;BME280;53957;47.222;18.670;2023-02-28T18:36:36;101300.50;;;3.28;91.48
67052;BME280;53957;47.222;18.670;2023-02-28T18:39:39;101294.25;;;3.15;92.13
67052;BME280;53957;47.222;18.670;2023-02-28T18:42:42;101295.31;;;3.60;89.66
67052;BME280;53957;47.222;18.670;2023-02-28T18:45:45;101291.97;;;3.26;92.01
67052;BME280;53957;47.222;18.670;2023-02-28T18:48:49;101294.09;;;3.55;91.20
67052;BME280;53957;47.222;18.670;2023-02-28T18:51:52;101288.41;;;3.59;90.77
67052;BME280;53957;47.222;18.670;2023-02-28T18:54:56;101287.22;;;3.54;90.52
67052;BME280;53957;47.222;18.670;2023-02-28T18:57:59;101290.87;;;3.47;92.71
67052;BME280;53957;47.222;18.670;2023-02-28T19:01:04;101276.69;;;3.48;93.49
67052;BME280;53957;47.222;18.670;2023-02-28T19:04:15;101277.31;;;3.43;94.53
67052;BME280;53957;47.222;18.670;2023-02-28T19:07:18;101284.53;;;3.09;95.41
67052;BME280;53957;47.222;18.670;2023-02-28T19:10:31;101280.06;;;3.03;96.11
67052;BME280;53957;47.222;18.670;2023-02-28T19:13:35;101280.87;;;3.10;96.35
67052;BME280;53957;47.222;18.670;2023-02-28T19:16:38;101282.84;;;3.35;94.48
67052;BME280;53957;47.222;18.670;2023-02-28T19:19:42;101280.41;;;3.33;94.14
67052;BME280;53957;47.222;18.670;2023-02-28T19:23:10;101280.69;;;2.98;97.65
67052;BME280;53957;47.222;18.670;2023-02-28T19:26:24;101291.00;;;3.06;96.64
67052;BME280;53957;47.222;18.670;2023-02-28T19:29:28;101285.22;;;3.43;94.77
67052;BME280;53957;47.222;18.670;2023-02-28T19:32:32;101285.00;;;3.58;94.24
67052;BME280;53957;47.222;18.670;2023-02-28T19:35:35;101283.81;;;3.47;94.42
67052;BME280;53957;47.222;18.670;2023-02-28T19:38:58;101283.50;;;3.03;97.66
67052;BME280;53957;47.222;18.670;2023-02-28T19:42:01;101290.87;;;3.47;95.61
67052;BME280;53957;47.222;18.670;2023-02-28T19:45:06;101283.81;;;3.47;95.68
67052;BME280;53957;47.222;18.670;2023-02-28T19:48:12;101292.16;;;3.31;97.29
67052;BME280;53957;47.222;18.670;2023-02-28T19:51:15;101286.97;;;3.04;100.00
67052;BME280;53957;47.222;18.670;2023-02-28T19:54:38;101289.78;;;3.09;100.00
67052;BME280;53957;47.222;18.670;2023-02-28T19:57:43;101287.56;;;2.99;100.00
67052;BME280;53957;47.222;18.670;2023-02-28T20:00:46;101293.00;;;3.18;100.00
67052;BME280;53957;47.222;18.670;2023-02-28T20:04:10;101287.31;;;3.28;100.00
67052;BME280;53957;47.222;18.670;2023-02-28T20:07:32;101288.97;;;3.15;100.00
67052;BME280;53957;47.222;18.670;2023-02-28T20:10:37;101288.78;;;3.10;100.00
67052;BME280;53957;47.222;18.670;2023-02-28T20:13:41;101292.62;;;3.08;100.00
67052;BME280;53957;47.222;18.670;2023-02-28T21:27:01;101292.25;;;3.04;100.00
67052;BME280;53957;47.222;18.670;2023-02-28T21:30:10;101294.25;;;3.15;100.00
67052;BME280;53957;47.222;18.670;2023-02-28T21:33:54;101286.38;;;2.88;100.00
67052;BME280;53957;47.222;18.670;2023-02-28T21:37:06;101289.44;;;2.85;100.00
67052;BME280;53957;47.222;18.670;2023-02-28T21:40:14;101286.97;;;2.90;100.00
67052;BME280;53957;47.222;18.670;2023-02-28T21:43:46;101288.97;;;3.02;100.00
67052;BME280;53957;47.222;18.670;2023-02-28T21:47:12;101292.22;;;3.11;100.00
67052;BME280;53957;47.222;18.670;2023-02-28T21:50:17;101287.38;;;3.08;100.00
67052;BME280;53957;47.222;18.670;2023-02-28T21:53:21;101290.19;;;3.06;100.00
67052;BME280;53957;47.222;18.670;2023-02-28T21:56:27;101284.53;;;3.09;100.00
67052;BME280;53957;47.222;18.670;2023-02-28T21:59:32;101287.34;;;3.01;100.00
67052;BME280;53957;47.222;18.670;2023-02-28T22:02:35;101282.09;;;3.01;100.00
67052;BME280;53957;47.222;18.670;2023-02-28T22:05:41;101280.06;;;3.03;100.00
67052;BME280;53957;47.222;18.670;2023-02-28T22:08:47;101280.06;;;3.03;100.00
67052;BME280;53957;47.222;18.670;2023-02-28T22:11:50;101274.19;;;3.01;100.00
67052;BME280;53957;47.222;18.670;2023-02-28T22:14:54;101268.91;;;3.01;100.00
67052;BME280;53957;47.222;18.670;2023-02-28T22:17:57;101269.09;;;3.06;100.00
67052;BME280;53957;47.222;18.670;2023-02-28T22:21:00;101267.50;;;3.05;100.00
67052;BME280;53957;47.222;18.670;2023-02-28T22:24:04;101264.84;;;3.12;100.00
67052;BME280;53957;47.222;18.670;2023-02-28T22:27:07;101272.78;;;2.98;100.00
67052;BME280;53957;47.222;18.670;2023-02-28T22:30:31;101267.09;;;2.95;100.00
67052;BME280;53957;47.222;18.670;2023-02-28T22:33:34;101262.25;;;2.92;100.00
67052;BME280;53957;47.222;18.670;2023-02-28T22:36:40;101253.94;;;2.81;100.00
67052;BME280;53957;47.222;18.670;2023-02-28T22:40:03;101255.75;;;2.87;100.00
67052;BME280;53957;47.222;18.670;2023-02-28T22:43:07;101248.28;;;2.84;100.00
67052;BME280;53957;47.222;18.670;2023-02-28T22:46:11;101255.53;;;2.96;100.00
67052;BME280;53957;47.222;18.670;2023-02-28T22:49:36;101250.87;;;2.91;100.00
67052;BME280;53957;47.222;18.670;2023-02-28T22:52:55;101256.78;;;2.80;100.00
67052;BME280;53957;47.222;18.670;2023-02-28T22:56:06;101259.41;;;2.86;100.00
67052;BME280;53957;47.222;18.670;2023-02-28T22:59:17;101248.91;;;2.73;100.00
67052;BME280;53957;47.222;18.670;2023-02-28T23:02:21;101259.03;;;2.69;100.00
67052;BME280;53957;47.222;18.670;2023-02-28T23:05:25;101257.59;;;2.80;100.00
67052;BME280;53957;47.222;18.670;2023-02-28T23:08:30;101259.84;;;2.63;100.00
67052;BME280;53957;47.222;18.670;2023-02-28T23:11:53;101252.53;;;2.85;100.00
67052;BME280;53957;47.222;18.670;2023-02-28T23:15:17;101259.16;;;3.08;100.00
67052;BME280;53957;47.222;18.670;2023-02-28T23:18:20;101262.62;;;3.02;100.00
67052;BME280;53957;47.222;18.670;2023-02-28T23:21:24;101258.78;;;3.11;100.00
67052;BME280;53957;47.222;18.670;2023-02-28T23:24:48;101254.78;;;2.68;100.00
67052;BME280;53957;47.222;18.670;2023-02-28T23:28:08;101245.03;;;2.82;100.00
67052;BME280;53957;47.222;18.670;2023-02-28T23:31:16;101260.22;;;3.00;100.00
67052;BME280;53957;47.222;18.670;2023-02-28T23:34:48;101260.59;;;2.97;100.00
67052;BME280;53957;47.222;18.670;2023-02-28T23:37:50;101263.03;;;3.05;100.00
67052;BME280;53957;47.222;18.670;2023-02-28T23:41:16;101264.66;;;3.06;100.00
67052;BME280;53957;47.222;18.670;2023-02-28T23:44:39;101268.75;;;2.69;100.00
67052;BME280;53957;47.222;18.670;2023-02-28T23:48:02;101270.78;;;2.60;100.00
67052;BME280;53957;47.222;18.670;2023-02-28T23:51:08;101275.00;;;3.01;100.00
67052;BME280;53957;47.222;18.670;2023-02-28T23:54:12;101259.84;;;2.70;100.00
67052;BME280;53957;47.222;18.670;2023-02-28T23:57:17;101261.66;;;2.63;100.00
